sensor_id;sensor_type;location;lat;lon;timestamp;P1;durP1;ratioP1;P2;durP2;ratioP2
2161;SDS011;1087;50.226;8.682;2023-02-28T00:01:06;4.67;;;4.27;;
2161;SDS011;1087;50.226;8.682;2023-02-28T00:03:32;6.97;;;4.50;;
2161;SDS011;1087;50.226;8.682;2023-02-28T00:06:00;5.20;;;4.80;;
2161;SDS011;1087;50.226;8.682;2023-02-28T00:08:27;5.87;;;4.90;;
2161;SDS011;1087;50.226;8.682;2023-02-28T00:10:53;5.30;;;4.80;;
2161;SDS011;1087;50.226;8.682;2023-02-28T00:13:18;5.30;;;4.90;;
2161;SDS011;1087;50.226;8.682;2023-02-28T00:15:44;5.87;;;5.40;;
2161;SDS011;1087;50.226;8.682;2023-02-28T00:18:10;5.43;;;5.03;;
2161;SDS011;1087;50.226;8.682;2023-02-28T00:20:36;4.97;;;4.57;;
2161;SDS011;1087;50.226;8.682;2023-02-28T00:23:02;5.17;;;4.77;;
2161;SDS011;1087;50.226;8.682;2023-02-28T00:25:28;5.63;;;5.10;;
2161;SDS011;1087;50.226;8.682;2023-02-28T00:27:53;4.43;;;4.13;;
2161;SDS011;1087;50.226;8.682;2023-02-28T00:30:20;6.13;;;5.63;;
2161;SDS011;1087;50.226;8.682;2023-02-28T00:32:46;6.10;;;5.33;;
2161;SDS011;1087;50.226;8.682;2023-02-28T00:35:12;5.30;;;4.90;;
2161;SDS011;1087;50.226;8.682;2023-02-28T00:37:38;5.60;;;5.10;;
2161;SDS011;1087;50.226;8.682;2023-02-28T00:40:04;6.07;;;5.17;;
2161;SDS011;1087;50.226;8.682;2023-02-28T00:42:31;5.87;;;5.23;;
2161;SDS011;1087;50.226;8.682;2023-02-28T00:44:57;5.40;;;5.00;;
2161;SDS011;1087;50.226;8.682;2023-02-28T00:47:22;6.20;;;5.67;;
2161;SDS011;1087;50.226;8.682;2023-02-28T00:49:48;6.20;;;5.47;;
2161;SDS011;1087;50.226;8.682;2023-02-28T00:52:13;5.73;;;5.20;;
2161;SDS011;1087;50.226;8.682;2023-02-28T00:54:39;9.00;;;5.57;;
2161;SDS011;1087;50.226;8.682;2023-02-28T00:57:04;5.33;;;4.93;;
2161;SDS011;1087;50.226;8.682;2023-02-28T00:59:30;5.63;;;5.13;;
2161;SDS011;1087;50.226;8.682;2023-02-28T01:01:55;7.23;;;6.27;;
2161;SDS011;1087;50.226;8.682;2023-02-28T01:04:22;5.90;;;5.30;;
2161;SDS011;1087;50.226;8.682;2023-02-28T01:06:47;6.77;;;6.17;;
2161;SDS011;1087;50.226;8.682;2023-02-28T01:09:13;6.50;;;5.70;;
2161;SDS011;1087;50.226;8.682;2023-02-28T01:11:39;5.83;;;5.33;;
2161;SDS011;1087;50.226;8.682;2023-02-28T01:14:06;5.93;;;5.43;;
2161;SDS011;1087;50.226;8.682;2023-02-28T01:16:33;6.10;;;5.60;;
2161;SDS011;1087;50.226;8.682;2023-02-28T01:18:58;6.03;;;5.43;;
2161;SDS011;1087;50.226;8.682;2023-02-28T01:21:24;5.90;;;5.37;;
2161;SDS011;1087;50.226;8.682;2023-02-28T01:23:50;5.70;;;5.20;;
2161;SDS011;1087;50.226;8.682;2023-02-28T01:26:17;5.73;;;5.23;;
2161;SDS011;1087;50.226;8.682;2023-02-28T01:28:45;6.20;;;5.60;;
2161;SDS011;1087;50.226;8.682;2023-02-28T01:31:11;6.70;;;5.83;;
2161;SDS011;1087;50.226;8.682;2023-02-28T01:33:36;6.23;;;5.63;;
2161;SDS011;1087;50.226;8.682;2023-02-28T01:36:04;6.80;;;5.70;;
2161;SDS011;1087;50.226;8.682;2023-02-28T01:38:31;6.47;;;5.90;;
2161;SDS011;1087;50.226;8.682;2023-02-28T01:40:58;6.90;;;6.07;;
2161;SDS011;1087;50.226;8.682;2023-02-28T01:43:29;6.80;;;6.20;;
2161;SDS011;1087;50.226;8.682;2023-02-28T01:46:00;5.90;;;5.40;;
2161;SDS011;1087;50.226;8.682;2023-02-28T01:48:27;5.80;;;5.30;;
2161;SDS011;1087;50.226;8.682;2023-02-28T01:51:02;5.93;;;5.40;;
2161;SDS011;1087;50.226;8.682;2023-02-28T01:53:33;7.10;;;5.83;;
2161;SDS011;1087;50.226;8.682;2023-02-28T01:56:04;6.70;;;6.03;;
2161;SDS011;1087;50.226;8.682;2023-02-28T01:58:31;6.37;;;5.80;;
2161;SDS011;1087;50.226;8.682;2023-02-28T02:00:57;6.50;;;5.43;;
2161;SDS011;1087;50.226;8.682;2023-02-28T02:03:23;6.30;;;5.70;;
2161;SDS011;1087;50.226;8.682;2023-02-28T02:05:49;6.93;;;6.10;;
2161;SDS011;1087;50.226;8.682;2023-02-28T02:08:19;6.13;;;5.53;;
2161;SDS011;1087;50.226;8.682;2023-02-28T02:10:50;5.83;;;5.33;;
2161;SDS011;1087;50.226;8.682;2023-02-28T02:13:28;5.87;;;5.37;;
2161;SDS011;1087;50.226;8.682;2023-02-28T02:18:52;5.87;;;5.30;;
2161;SDS011;1087;50.226;8.682;2023-02-28T02:40:54;6.63;;;5.90;;
2161;SDS011;1087;50.226;8.682;2023-02-28T02:43:39;5.83;;;5.33;;
2161;SDS011;1087;50.226;8.682;2023-02-28T02:46:08;5.63;;;5.17;;
2161;SDS011;1087;50.226;8.682;2023-02-28T02:48:46;6.87;;;5.90;;
2161;SDS011;1087;50.226;8.682;2023-02-28T02:51:16;6.33;;;5.80;;
2161;SDS011;1087;50.226;8.682;2023-02-28T02:53:49;6.70;;;6.00;;
2161;SDS011;1087;50.226;8.682;2023-02-28T02:56:23;8.93;;;6.23;;
2161;SDS011;1087;50.226;8.682;2023-02-28T02:58:51;6.77;;;6.10;;
2161;SDS011;1087;50.226;8.682;2023-02-28T03:01:22;5.93;;;5.43;;
2161;SDS011;1087;50.226;8.682;2023-02-28T03:04:00;8.03;;;6.57;;
2161;SDS011;1087;50.226;8.682;2023-02-28T03:06:29;5.63;;;5.13;;
2161;SDS011;1087;50.226;8.682;2023-02-28T03:08:54;6.20;;;5.50;;
2161;SDS011;1087;50.226;8.682;2023-02-28T03:11:20;6.43;;;5.83;;
2161;SDS011;1087;50.226;8.682;2023-02-28T03:13:54;7.60;;;6.80;;
2161;SDS011;1087;50.226;8.682;2023-02-28T03:19:47;5.50;;;4.83;;
2161;SDS011;1087;50.226;8.682;2023-02-28T03:33:17;6.83;;;6.13;;
2161;SDS011;1087;50.226;8.682;2023-02-28T03:35:57;7.10;;;5.97;;
2161;SDS011;1087;50.226;8.682;2023-02-28T03:38:45;7.80;;;6.40;;
2161;SDS011;1087;50.226;8.682;2023-02-28T03:41:25;7.90;;;6.03;;
2161;SDS011;1087;50.226;8.682;2023-02-28T03:43:56;8.37;;;6.80;;
2161;SDS011;1087;50.226;8.682;2023-02-28T03:46:26;7.43;;;6.73;;
2161;SDS011;1087;50.226;8.682;2023-02-28T03:48:58;6.63;;;5.90;;
2161;SDS011;1087;50.226;8.682;2023-02-28T03:51:30;8.03;;;6.30;;
2161;SDS011;1087;50.226;8.682;2023-02-28T03:53:58;6.70;;;6.10;;
2161;SDS011;1087;50.226;8.682;2023-02-28T03:56:43;6.90;;;6.30;;
2161;SDS011;1087;50.226;8.682;2023-02-28T03:59:26;7.07;;;6.20;;
2161;SDS011;1087;50.226;8.682;2023-02-28T04:01:59;6.13;;;5.53;;
2161;SDS011;1087;50.226;8.682;2023-02-28T04:04:25;5.53;;;5.03;;
2161;SDS011;1087;50.226;8.682;2023-02-28T04:06:51;6.70;;;6.00;;
2161;SDS011;1087;50.226;8.682;2023-02-28T04:09:17;5.87;;;5.37;;
2161;SDS011;1087;50.226;8.682;2023-02-28T04:11:52;6.30;;;5.60;;
2161;SDS011;1087;50.226;8.682;2023-02-28T04:14:18;5.83;;;5.37;;
2161;SDS011;1087;50.226;8.682;2023-02-28T04:16:43;7.13;;;6.43;;
2161;SDS011;1087;50.226;8.682;2023-02-28T04:19:10;7.50;;;6.80;;
2161;SDS011;1087;50.226;8.682;2023-02-28T04:21:39;6.53;;;5.47;;
2161;SDS011;1087;50.226;8.682;2023-02-28T04:24:06;6.00;;;5.50;;
2161;SDS011;1087;50.226;8.682;2023-02-28T04:26:38;6.97;;;6.27;;
2161;SDS011;1087;50.226;8.682;2023-02-28T04:29:05;6.00;;;5.23;;
2161;SDS011;1087;50.226;8.682;2023-02-28T04:31:32;5.93;;;5.43;;
2161;SDS011;1087;50.226;8.682;2023-02-28T04:33:58;7.00;;;5.70;;
2161;SDS011;1087;50.226;8.682;2023-02-28T04:36:24;6.47;;;5.83;;
2161;SDS011;1087;50.226;8.682;2023-02-28T04:38:50;5.93;;;5.43;;
2161;SDS011;1087;50.226;8.682;2023-02-28T04:41:16;6.00;;;5.40;;
2161;SDS011;1087;50.226;8.682;2023-02-28T04:43:41;6.30;;;5.60;;
2161;SDS011;1087;50.226;8.682;2023-02-28T04:46:07;5.90;;;5.40;;
2161;SDS011;1087;50.226;8.682;2023-02-28T04:48:35;6.43;;;5.83;;
2161;SDS011;1087;50.226;8.682;2023-02-28T04:51:03;5.90;;;5.27;;
2161;SDS011;1087;50.226;8.682;2023-02-28T04:53:31;6.00;;;5.50;;
2161;SDS011;1087;50.226;8.682;2023-02-28T04:55:56;6.77;;;6.07;;
2161;SDS011;1087;50.226;8.682;2023-02-28T04:58:22;6.20;;;5.70;;
2161;SDS011;1087;50.226;8.682;2023-02-28T05:00:48;6.80;;;6.10;;
2161;SDS011;1087;50.226;8.682;2023-02-28T05:03:17;6.03;;;5.17;;
2161;SDS011;1087;50.226;8.682;2023-02-28T05:05:43;10.73;;;5.93;;
2161;SDS011;1087;50.226;8.682;2023-02-28T05:08:09;5.73;;;5.33;;
2161;SDS011;1087;50.226;8.682;2023-02-28T05:10:35;8.20;;;6.80;;
2161;SDS011;1087;50.226;8.682;2023-02-28T05:13:01;6.80;;;6.10;;
2161;SDS011;1087;50.226;8.682;2023-02-28T05:15:27;7.50;;;6.80;;
2161;SDS011;1087;50.226;8.682;2023-02-28T05:17:52;6.43;;;5.83;;
2161;SDS011;1087;50.226;8.682;2023-02-28T05:20:18;6.07;;;4.97;;
2161;SDS011;1087;50.226;8.682;2023-02-28T05:22:43;6.13;;;5.53;;
2161;SDS011;1087;50.226;8.682;2023-02-28T05:25:10;5.47;;;4.67;;
2161;SDS011;1087;50.226;8.682;2023-02-28T05:27:40;6.30;;;5.53;;
2161;SDS011;1087;50.226;8.682;2023-02-28T05:30:06;5.13;;;4.73;;
2161;SDS011;1087;50.226;8.682;2023-02-28T05:32:35;6.70;;;5.00;;
2161;SDS011;1087;50.226;8.682;2023-02-28T05:35:07;7.50;;;5.60;;
2161;SDS011;1087;50.226;8.682;2023-02-28T05:37:34;5.40;;;4.90;;
2161;SDS011;1087;50.226;8.682;2023-02-28T05:40:00;5.97;;;5.43;;
2161;SDS011;1087;50.226;8.682;2023-02-28T05:42:26;5.10;;;4.33;;
2161;SDS011;1087;50.226;8.682;2023-02-28T05:44:51;5.33;;;4.67;;
2161;SDS011;1087;50.226;8.682;2023-02-28T05:47:17;6.27;;;5.50;;
2161;SDS011;1087;50.226;8.682;2023-02-28T05:49:42;5.40;;;4.90;;
2161;SDS011;1087;50.226;8.682;2023-02-28T05:52:08;5.97;;;5.43;;
2161;SDS011;1087;50.226;8.682;2023-02-28T05:54:33;5.50;;;5.00;;
2161;SDS011;1087;50.226;8.682;2023-02-28T05:56:59;6.60;;;5.57;;
2161;SDS011;1087;50.226;8.682;2023-02-28T05:59:24;7.07;;;6.37;;
2161;SDS011;1087;50.226;8.682;2023-02-28T06:01:50;6.87;;;5.03;;
2161;SDS011;1087;50.226;8.682;2023-02-28T06:04:18;6.00;;;5.50;;
2161;SDS011;1087;50.226;8.682;2023-02-28T06:06:45;6.30;;;5.77;;
2161;SDS011;1087;50.226;8.682;2023-02-28T06:09:12;5.97;;;5.37;;
2161;SDS011;1087;50.226;8.682;2023-02-28T06:11:38;5.97;;;5.40;;
2161;SDS011;1087;50.226;8.682;2023-02-28T06:14:04;6.50;;;5.67;;
2161;SDS011;1087;50.226;8.682;2023-02-28T06:16:30;7.87;;;7.07;;
2161;SDS011;1087;50.226;8.682;2023-02-28T06:18:58;8.83;;;6.00;;
2161;SDS011;1087;50.226;8.682;2023-02-28T06:21:25;6.00;;;5.50;;
2161;SDS011;1087;50.226;8.682;2023-02-28T06:23:52;7.33;;;5.77;;
2161;SDS011;1087;50.226;8.682;2023-02-28T06:26:18;6.13;;;5.53;;
2161;SDS011;1087;50.226;8.682;2023-02-28T06:28:44;6.20;;;5.60;;
2161;SDS011;1087;50.226;8.682;2023-02-28T06:31:11;5.97;;;5.27;;
2161;SDS011;1087;50.226;8.682;2023-02-28T06:33:38;5.03;;;4.53;;
2161;SDS011;1087;50.226;8.682;2023-02-28T06:36:05;7.60;;;5.90;;
2161;SDS011;1087;50.226;8.682;2023-02-28T06:38:32;5.90;;;5.40;;
2161;SDS011;1087;50.226;8.682;2023-02-28T06:40:58;5.70;;;5.00;;
2161;SDS011;1087;50.226;8.682;2023-02-28T06:43:25;6.47;;;5.87;;
2161;SDS011;1087;50.226;8.682;2023-02-28T06:45:57;6.13;;;5.63;;
2161;SDS011;1087;50.226;8.682;2023-02-28T06:48:25;6.00;;;5.43;;
2161;SDS011;1087;50.226;8.682;2023-02-28T06:50:52;5.90;;;5.40;;
2161;SDS011;1087;50.226;8.682;2023-02-28T06:53:25;6.37;;;5.30;;
2161;SDS011;1087;50.226;8.682;2023-02-28T06:55:51;5.93;;;5.43;;
2161;SDS011;1087;50.226;8.682;2023-02-28T06:58:16;6.30;;;5.70;;
2161;SDS011;1087;50.226;8.682;2023-02-28T07:00:45;6.13;;;5.60;;
2161;SDS011;1087;50.226;8.682;2023-02-28T07:03:15;5.90;;;5.30;;
2161;SDS011;1087;50.226;8.682;2023-02-28T07:05:40;6.00;;;5.03;;
2161;SDS011;1087;50.226;8.682;2023-02-28T07:08:06;6.20;;;5.53;;
2161;SDS011;1087;50.226;8.682;2023-02-28T07:10:32;6.00;;;5.13;;
2161;SDS011;1087;50.226;8.682;2023-02-28T07:12:58;6.63;;;5.97;;
2161;SDS011;1087;50.226;8.682;2023-02-28T07:15:25;6.30;;;5.70;;
2161;SDS011;1087;50.226;8.682;2023-02-28T07:17:50;6.30;;;5.43;;
2161;SDS011;1087;50.226;8.682;2023-02-28T07:20:16;8.30;;;5.57;;
2161;SDS011;1087;50.226;8.682;2023-02-28T07:22:42;6.90;;;6.20;;
2161;SDS011;1087;50.226;8.682;2023-02-28T07:25:07;8.10;;;7.30;;
2161;SDS011;1087;50.226;8.682;2023-02-28T07:27:33;6.80;;;6.10;;
2161;SDS011;1087;50.226;8.682;2023-02-28T07:29:59;7.30;;;6.63;;
2161;SDS011;1087;50.226;8.682;2023-02-28T07:32:26;7.10;;;6.40;;
2161;SDS011;1087;50.226;8.682;2023-02-28T07:34:52;8.00;;;6.50;;
2161;SDS011;1087;50.226;8.682;2023-02-28T07:37:18;7.70;;;6.90;;
2161;SDS011;1087;50.226;8.682;2023-02-28T07:39:44;7.37;;;6.40;;
2161;SDS011;1087;50.226;8.682;2023-02-28T07:42:10;8.27;;;6.97;;
2161;SDS011;1087;50.226;8.682;2023-02-28T07:44:37;6.90;;;6.20;;
2161;SDS011;1087;50.226;8.682;2023-02-28T07:47:09;7.30;;;6.60;;
2161;SDS011;1087;50.226;8.682;2023-02-28T07:49:38;7.30;;;6.60;;
2161;SDS011;1087;50.226;8.682;2023-02-28T07:52:04;7.13;;;6.27;;
2161;SDS011;1087;50.226;8.682;2023-02-28T07:54:31;7.10;;;5.67;;
2161;SDS011;1087;50.226;8.682;2023-02-28T07:56:58;7.87;;;6.03;;
2161;SDS011;1087;50.226;8.682;2023-02-28T07:59:23;8.43;;;7.03;;
2161;SDS011;1087;50.226;8.682;2023-02-28T08:01:49;8.90;;;5.50;;
2161;SDS011;1087;50.226;8.682;2023-02-28T08:04:18;7.27;;;6.63;;
2161;SDS011;1087;50.226;8.682;2023-02-28T08:06:44;7.40;;;6.40;;
2161;SDS011;1087;50.226;8.682;2023-02-28T08:09:09;7.93;;;6.00;;
2161;SDS011;1087;50.226;8.682;2023-02-28T08:11:35;6.80;;;5.93;;
2161;SDS011;1087;50.226;8.682;2023-02-28T08:14:01;6.03;;;5.43;;
2161;SDS011;1087;50.226;8.682;2023-02-28T08:16:27;8.80;;;6.07;;
2161;SDS011;1087;50.226;8.682;2023-02-28T08:18:52;13.90;;;10.90;;
2161;SDS011;1087;50.226;8.682;2023-02-28T08:21:19;10.70;;;7.40;;
2161;SDS011;1087;50.226;8.682;2023-02-28T08:23:48;7.90;;;7.20;;
2161;SDS011;1087;50.226;8.682;2023-02-28T08:26:18;8.93;;;6.10;;
2161;SDS011;1087;50.226;8.682;2023-02-28T08:28:44;6.80;;;6.10;;
2161;SDS011;1087;50.226;8.682;2023-02-28T08:31:10;6.87;;;6.17;;
2161;SDS011;1087;50.226;8.682;2023-02-28T08:33:39;6.00;;;5.40;;
2161;SDS011;1087;50.226;8.682;2023-02-28T08:36:06;6.57;;;5.60;;
2161;SDS011;1087;50.226;8.682;2023-02-28T08:38:32;5.50;;;5.10;;
2161;SDS011;1087;50.226;8.682;2023-02-28T08:40:59;5.23;;;4.73;;
2161;SDS011;1087;50.226;8.682;2023-02-28T08:43:26;5.47;;;4.97;;
2161;SDS011;1087;50.226;8.682;2023-02-28T08:45:52;7.67;;;4.63;;
2161;SDS011;1087;50.226;8.682;2023-02-28T08:48:19;4.63;;;4.20;;
2161;SDS011;1087;50.226;8.682;2023-02-28T08:50:45;5.50;;;4.30;;
2161;SDS011;1087;50.226;8.682;2023-02-28T08:53:19;4.60;;;4.03;;
2161;SDS011;1087;50.226;8.682;2023-02-28T08:55:45;5.43;;;4.23;;
2161;SDS011;1087;50.226;8.682;2023-02-28T08:58:10;7.10;;;5.10;;
2161;SDS011;1087;50.226;8.682;2023-02-28T09:00:36;5.47;;;4.83;;
2161;SDS011;1087;50.226;8.682;2023-02-28T09:03:01;5.90;;;5.40;;
2161;SDS011;1087;50.226;8.682;2023-02-28T09:05:28;7.93;;;6.40;;
2161;SDS011;1087;50.226;8.682;2023-02-28T09:07:54;10.63;;;7.73;;
2161;SDS011;1087;50.226;8.682;2023-02-28T09:10:20;6.73;;;6.03;;
2161;SDS011;1087;50.226;8.682;2023-02-28T09:12:45;6.27;;;5.67;;
2161;SDS011;1087;50.226;8.682;2023-02-28T09:15:12;5.70;;;5.17;;
2161;SDS011;1087;50.226;8.682;2023-02-28T09:17:37;6.73;;;6.07;;
2161;SDS011;1087;50.226;8.682;2023-02-28T09:20:03;5.77;;;5.17;;
2161;SDS011;1087;50.226;8.682;2023-02-28T09:22:30;6.10;;;5.50;;
2161;SDS011;1087;50.226;8.682;2023-02-28T09:24:55;6.93;;;6.20;;
2161;SDS011;1087;50.226;8.682;2023-02-28T09:27:21;9.50;;;5.97;;
2161;SDS011;1087;50.226;8.682;2023-02-28T09:29:46;7.50;;;5.90;;
2161;SDS011;1087;50.226;8.682;2023-02-28T09:32:12;6.73;;;5.60;;
2161;SDS011;1087;50.226;8.682;2023-02-28T09:34:37;6.47;;;5.17;;
2161;SDS011;1087;50.226;8.682;2023-02-28T09:37:03;5.87;;;5.30;;
2161;SDS011;1087;50.226;8.682;2023-02-28T09:39:29;6.40;;;5.57;;
2161;SDS011;1087;50.226;8.682;2023-02-28T09:41:55;5.70;;;5.20;;
2161;SDS011;1087;50.226;8.682;2023-02-28T09:44:28;9.57;;;8.53;;
2161;SDS011;1087;50.226;8.682;2023-02-28T09:47:26;7.00;;;6.30;;
2161;SDS011;1087;50.226;8.682;2023-02-28T09:49:53;5.57;;;5.07;;
2161;SDS011;1087;50.226;8.682;2023-02-28T09:52:26;6.20;;;5.60;;
2161;SDS011;1087;50.226;8.682;2023-02-28T09:54:55;6.00;;;5.40;;
2161;SDS011;1087;50.226;8.682;2023-02-28T10:02:47;5.87;;;5.27;;
2161;SDS011;1087;50.226;8.682;2023-02-28T10:12:59;7.23;;;6.63;;
2161;SDS011;1087;50.226;8.682;2023-02-28T10:15:27;6.53;;;6.03;;
2161;SDS011;1087;50.226;8.682;2023-02-28T10:17:58;8.30;;;5.30;;
2161;SDS011;1087;50.226;8.682;2023-02-28T10:20:28;5.90;;;5.40;;
2161;SDS011;1087;50.226;8.682;2023-02-28T10:23:02;7.17;;;5.77;;
2161;SDS011;1087;50.226;8.682;2023-02-28T10:25:35;7.27;;;6.50;;
2161;SDS011;1087;50.226;8.682;2023-02-28T10:28:12;6.70;;;6.10;;
2161;SDS011;1087;50.226;8.682;2023-02-28T10:30:49;6.20;;;5.70;;
2161;SDS011;1087;50.226;8.682;2023-02-28T10:33:21;6.40;;;5.70;;
2161;SDS011;1087;50.226;8.682;2023-02-28T10:35:51;5.53;;;5.00;;
2161;SDS011;1087;50.226;8.682;2023-02-28T10:38:27;6.20;;;5.60;;
2161;SDS011;1087;50.226;8.682;2023-02-28T10:41:05;6.27;;;5.70;;
2161;SDS011;1087;50.226;8.682;2023-02-28T10:43:33;5.97;;;5.20;;
2161;SDS011;1087;50.226;8.682;2023-02-28T10:48:34;5.87;;;5.27;;
2161;SDS011;1087;50.226;8.682;2023-02-28T10:51:06;7.87;;;5.80;;
2161;SDS011;1087;50.226;8.682;2023-02-28T11:03:47;6.77;;;5.67;;
2161;SDS011;1087;50.226;8.682;2023-02-28T11:06:15;6.33;;;5.83;;
2161;SDS011;1087;50.226;8.682;2023-02-28T11:08:48;6.50;;;5.70;;
2161;SDS011;1087;50.226;8.682;2023-02-28T11:11:16;6.40;;;5.90;;
2161;SDS011;1087;50.226;8.682;2023-02-28T11:13:43;6.00;;;5.50;;
2161;SDS011;1087;50.226;8.682;2023-02-28T11:16:11;6.27;;;5.77;;
2161;SDS011;1087;50.226;8.682;2023-02-28T11:18:42;6.77;;;6.13;;
2161;SDS011;1087;50.226;8.682;2023-02-28T11:21:23;5.90;;;5.30;;
2161;SDS011;1087;50.226;8.682;2023-02-28T11:23:54;6.37;;;5.73;;
2161;SDS011;1087;50.226;8.682;2023-02-28T11:26:45;6.20;;;5.37;;
2161;SDS011;1087;50.226;8.682;2023-02-28T11:29:30;6.47;;;5.90;;
2161;SDS011;1087;50.226;8.682;2023-02-28T11:32:00;6.50;;;5.90;;
2161;SDS011;1087;50.226;8.682;2023-02-28T11:34:41;5.73;;;5.23;;
2161;SDS011;1087;50.226;8.682;2023-02-28T11:37:10;6.83;;;6.23;;
2161;SDS011;1087;50.226;8.682;2023-02-28T11:39:44;5.97;;;5.47;;
2161;SDS011;1087;50.226;8.682;2023-02-28T11:48:04;6.47;;;5.70;;
2161;SDS011;1087;50.226;8.682;2023-02-28T11:50:49;6.30;;;5.70;;
2161;SDS011;1087;50.226;8.682;2023-02-28T11:56:31;6.70;;;6.10;;
2161;SDS011;1087;50.226;8.682;2023-02-28T12:04:27;6.57;;;5.93;;
2161;SDS011;1087;50.226;8.682;2023-02-28T12:07:18;7.13;;;6.40;;
2161;SDS011;1087;50.226;8.682;2023-02-28T12:15:29;6.23;;;5.63;;
2161;SDS011;1087;50.226;8.682;2023-02-28T12:18:23;6.70;;;6.10;;
2161;SDS011;1087;50.226;8.682;2023-02-28T12:26:51;9.03;;;6.57;;
2161;SDS011;1087;50.226;8.682;2023-02-28T12:29:28;6.30;;;5.63;;
2161;SDS011;1087;50.226;8.682;2023-02-28T12:32:09;7.63;;;6.50;;
2161;SDS011;1087;50.226;8.682;2023-02-28T12:34:58;8.60;;;6.90;;
2161;SDS011;1087;50.226;8.682;2023-02-28T12:37:32;7.37;;;6.63;;
2161;SDS011;1087;50.226;8.682;2023-02-28T12:40:04;7.53;;;6.73;;
2161;SDS011;1087;50.226;8.682;2023-02-28T12:42:36;7.70;;;6.90;;
2161;SDS011;1087;50.226;8.682;2023-02-28T12:45:10;7.07;;;6.23;;
2161;SDS011;1087;50.226;8.682;2023-02-28T12:47:44;7.17;;;6.50;;
2161;SDS011;1087;50.226;8.682;2023-02-28T12:50:16;7.47;;;6.30;;
2161;SDS011;1087;50.226;8.682;2023-02-28T12:55:31;6.73;;;6.10;;
2161;SDS011;1087;50.226;8.682;2023-02-28T12:58:14;7.43;;;6.60;;
2161;SDS011;1087;50.226;8.682;2023-02-28T13:07:00;20.90;;;12.40;;
2161;SDS011;1087;50.226;8.682;2023-02-28T13:09:59;10.60;;;8.13;;
2161;SDS011;1087;50.226;8.682;2023-02-28T13:12:27;7.43;;;6.40;;
2161;SDS011;1087;50.226;8.682;2023-02-28T13:15:16;7.07;;;6.37;;
2161;SDS011;1087;50.226;8.682;2023-02-28T13:17:48;7.20;;;6.50;;
2161;SDS011;1087;50.226;8.682;2023-02-28T13:20:34;10.73;;;7.90;;
2161;SDS011;1087;50.226;8.682;2023-02-28T13:23:01;8.27;;;7.30;;
2161;SDS011;1087;50.226;8.682;2023-02-28T13:27:59;6.77;;;6.07;;
2161;SDS011;1087;50.226;8.682;2023-02-28T13:38:36;7.77;;;6.97;;
2161;SDS011;1087;50.226;8.682;2023-02-28T13:51:53;7.00;;;6.30;;
2161;SDS011;1087;50.226;8.682;2023-02-28T14:06:16;7.73;;;7.03;;
2161;SDS011;1087;50.226;8.682;2023-02-28T14:11:24;6.90;;;6.20;;
2161;SDS011;1087;50.226;8.682;2023-02-28T14:13:51;6.63;;;5.93;;
2161;SDS011;1087;50.226;8.682;2023-02-28T14:16:20;7.00;;;6.40;;
2161;SDS011;1087;50.226;8.682;2023-02-28T14:18:58;6.90;;;6.33;;
2161;SDS011;1087;50.226;8.682;2023-02-28T14:21:32;8.00;;;6.60;;
2161;SDS011;1087;50.226;8.682;2023-02-28T14:29:35;8.77;;;6.90;;
2161;SDS011;1087;50.226;8.682;2023-02-28T14:37:50;10.27;;;7.37;;
2161;SDS011;1087;50.226;8.682;2023-02-28T14:40:38;8.60;;;7.37;;
2161;SDS011;1087;50.226;8.682;2023-02-28T14:43:04;8.10;;;6.43;;
2161;SDS011;1087;50.226;8.682;2023-02-28T14:45:32;8.97;;;7.50;;
2161;SDS011;1087;50.226;8.682;2023-02-28T14:48:01;8.30;;;6.93;;
2161;SDS011;1087;50.226;8.682;2023-02-28T14:50:30;6.90;;;6.30;;
2161;SDS011;1087;50.226;8.682;2023-02-28T14:52:58;7.10;;;6.50;;
2161;SDS011;1087;50.226;8.682;2023-02-28T14:55:26;7.20;;;6.60;;
2161;SDS011;1087;50.226;8.682;2023-02-28T14:57:55;7.20;;;6.20;;
2161;SDS011;1087;50.226;8.682;2023-02-28T15:02:58;7.30;;;6.27;;
2161;SDS011;1087;50.226;8.682;2023-02-28T15:05:30;7.27;;;6.57;;
2161;SDS011;1087;50.226;8.682;2023-02-28T15:08:06;7.47;;;6.77;;
2161;SDS011;1087;50.226;8.682;2023-02-28T15:11:25;8.33;;;6.60;;
2161;SDS011;1087;50.226;8.682;2023-02-28T15:13:28;7.80;;;6.57;;
2161;SDS011;1087;50.226;8.682;2023-02-28T15:16:19;6.93;;;6.30;;
2161;SDS011;1087;50.226;8.682;2023-02-28T15:18:52;7.63;;;6.83;;
2161;SDS011;1087;50.226;8.682;2023-02-28T15:21:25;6.67;;;6.07;;
2161;SDS011;1087;50.226;8.682;2023-02-28T15:24:41;8.37;;;6.70;;
2161;SDS011;1087;50.226;8.682;2023-02-28T15:26:51;6.73;;;6.07;;
2161;SDS011;1087;50.226;8.682;2023-02-28T15:29:21;7.67;;;6.83;;
2161;SDS011;1087;50.226;8.682;2023-02-28T15:31:50;8.70;;;7.90;;
2161;SDS011;1087;50.226;8.682;2023-02-28T15:34:30;8.30;;;6.60;;
2161;SDS011;1087;50.226;8.682;2023-02-28T15:40:25;6.90;;;6.20;;
2161;SDS011;1087;50.226;8.682;2023-02-28T15:43:02;7.70;;;6.90;;
2161;SDS011;1087;50.226;8.682;2023-02-28T15:45:47;8.80;;;6.53;;
2161;SDS011;1087;50.226;8.682;2023-02-28T15:51:31;7.27;;;6.57;;
2161;SDS011;1087;50.226;8.682;2023-02-28T15:53:38;8.03;;;6.77;;
2161;SDS011;1087;50.226;8.682;2023-02-28T15:56:19;10.60;;;7.97;;
2161;SDS011;1087;50.226;8.682;2023-02-28T15:59:03;9.73;;;6.80;;
2161;SDS011;1087;50.226;8.682;2023-02-28T16:01:35;7.50;;;6.67;;
2161;SDS011;1087;50.226;8.682;2023-02-28T16:04:17;9.40;;;7.27;;
2161;SDS011;1087;50.226;8.682;2023-02-28T16:07:05;8.50;;;7.70;;
2161;SDS011;1087;50.226;8.682;2023-02-28T16:09:30;8.90;;;8.03;;
2161;SDS011;1087;50.226;8.682;2023-02-28T16:11:59;10.30;;;7.97;;
2161;SDS011;1087;50.226;8.682;2023-02-28T16:14:27;8.30;;;7.47;;
2161;SDS011;1087;50.226;8.682;2023-02-28T16:17:04;10.03;;;6.97;;
2161;SDS011;1087;50.226;8.682;2023-02-28T16:19:31;9.43;;;8.53;;
2161;SDS011;1087;50.226;8.682;2023-02-28T16:21:57;7.70;;;7.00;;
2161;SDS011;1087;50.226;8.682;2023-02-28T16:24:23;10.63;;;8.10;;
2161;SDS011;1087;50.226;8.682;2023-02-28T16:26:49;8.50;;;7.80;;
2161;SDS011;1087;50.226;8.682;2023-02-28T16:29:21;8.00;;;7.20;;
2161;SDS011;1087;50.226;8.682;2023-02-28T16:31:51;7.87;;;7.17;;
2161;SDS011;1087;50.226;8.682;2023-02-28T16:34:18;8.60;;;7.70;;
2161;SDS011;1087;50.226;8.682;2023-02-28T16:36:45;15.57;;;11.13;;
2161;SDS011;1087;50.226;8.682;2023-02-28T16:39:11;13.40;;;10.47;;
2161;SDS011;1087;50.226;8.682;2023-02-28T16:41:37;16.13;;;11.30;;
2161;SDS011;1087;50.226;8.682;2023-02-28T16:44:07;10.73;;;9.63;;
2161;SDS011;1087;50.226;8.682;2023-02-28T16:46:37;13.30;;;11.60;;
2161;SDS011;1087;50.226;8.682;2023-02-28T16:49:03;10.13;;;8.17;;
2161;SDS011;1087;50.226;8.682;2023-02-28T16:51:28;8.50;;;7.70;;
2161;SDS011;1087;50.226;8.682;2023-02-28T16:53:54;10.50;;;9.50;;
2161;SDS011;1087;50.226;8.682;2023-02-28T16:56:20;9.57;;;8.67;;
2161;SDS011;1087;50.226;8.682;2023-02-28T16:58:48;9.20;;;8.30;;
2161;SDS011;1087;50.226;8.682;2023-02-28T17:01:15;8.63;;;7.82;;
2161;SDS011;1087;50.226;8.682;2023-02-28T17:03:41;10.93;;;8.10;;
2161;SDS011;1087;50.226;8.682;2023-02-28T17:06:16;7.93;;;7.33;;
2161;SDS011;1087;50.226;8.682;2023-02-28T17:08:48;7.63;;;6.93;;
2161;SDS011;1087;50.226;8.682;2023-02-28T17:11:15;8.60;;;7.70;;
2161;SDS011;1087;50.226;8.682;2023-02-28T17:13:41;9.97;;;8.80;;
2161;SDS011;1087;50.226;8.682;2023-02-28T17:16:09;8.20;;;7.23;;
2161;SDS011;1087;50.226;8.682;2023-02-28T17:18:44;8.73;;;7.00;;
2161;SDS011;1087;50.226;8.682;2023-02-28T17:21:12;8.23;;;6.73;;
2161;SDS011;1087;50.226;8.682;2023-02-28T17:23:39;7.97;;;7.17;;
2161;SDS011;1087;50.226;8.682;2023-02-28T17:26:04;8.43;;;7.60;;
2161;SDS011;1087;50.226;8.682;2023-02-28T17:28:31;7.30;;;6.60;;
2161;SDS011;1087;50.226;8.682;2023-02-28T17:30:57;8.43;;;7.50;;
2161;SDS011;1087;50.226;8.682;2023-02-28T17:33:22;9.60;;;8.57;;
2161;SDS011;1087;50.226;8.682;2023-02-28T17:35:48;11.03;;;9.27;;
2161;SDS011;1087;50.226;8.682;2023-02-28T17:38:15;10.97;;;8.03;;
2161;SDS011;1087;50.226;8.682;2023-02-28T17:40:42;9.50;;;8.53;;
2161;SDS011;1087;50.226;8.682;2023-02-28T17:43:08;10.60;;;9.13;;
2161;SDS011;1087;50.226;8.682;2023-02-28T17:45:33;10.73;;;8.10;;
2161;SDS011;1087;50.226;8.682;2023-02-28T17:48:00;11.60;;;9.50;;
2161;SDS011;1087;50.226;8.682;2023-02-28T17:50:26;11.67;;;9.20;;
2161;SDS011;1087;50.226;8.682;2023-02-28T17:52:51;13.47;;;10.27;;
2161;SDS011;1087;50.226;8.682;2023-02-28T17:55:17;12.63;;;10.70;;
2161;SDS011;1087;50.226;8.682;2023-02-28T17:57:46;12.10;;;9.00;;
2161;SDS011;1087;50.226;8.682;2023-02-28T18:00:12;11.00;;;10.00;;
2161;SDS011;1087;50.226;8.682;2023-02-28T18:02:40;12.83;;;10.00;;